Time;durP1;ratioP1;P1;durP2;ratioP2;P2;SDS_P1;SDS_P2;PMS_P1;PMS_P2;Temp;Humidity;BMP_temperature;BMP_pressure;BME280_temperature;BME280_humidity;BME280_pressure;Samples;Min_cycle;Max_cycle;Signal;HPM_P1;HPM_P2
2022/07/18 00:02:17;;;;;;;3.80;1.40;;;;;;;14.94;63.39;101856.54;107902;1277;62375;-85
2022/07/18 00:04:44;;;;;;;3.90;1.40;;;;;;;14.88;63.32;101858.98;107633;1278;60567;-85
2022/07/18 00:07:12;;;;;;;4.10;1.50;;;;;;;14.83;63.60;101857.25;107789;1278;75759;-85
2022/07/18 00:09:41;;;;;;;4.40;1.40;;;;;;;14.79;63.70;101857.95;107820;1278;72191;-84
2022/07/18 00:12:09;;;;;;;7.40;1.50;;;;;;;14.75;63.72;101854.25;107577;1277;74618;-85
2022/07/18 00:14:36;;;;;;;6.00;1.50;;;;;;;14.71;63.99;101852.07;108014;1277;61679;-84
2022/07/18 00:17:05;;;;;;;4.80;1.60;;;;;;;14.66;64.37;101854.45;107738;1277;60541;-85
2022/07/18 00:19:32;;;;;;;6.70;1.70;;;;;;;14.62;64.26;101853.91;107960;1277;74026;-85
2022/07/18 00:22:00;;;;;;;4.30;1.70;;;;;;;14.59;64.27;101851.61;107928;1277;71146;-85
2022/07/18 00:24:27;;;;;;;5.60;1.50;;;;;;;14.55;64.59;101844.33;107624;1277;72977;-85
2022/07/18 00:26:55;;;;;;;7.60;2.00;;;;;;;14.54;64.68;101844.33;107946;1277;62116;-85
2022/07/18 00:29:21;;;;;;;4.00;1.30;;;;;;;14.52;64.91;101845.38;108058;1277;60196;-85
2022/07/18 00:31:48;;;;;;;5.20;2.10;;;;;;;14.51;64.77;101843.73;107932;1277;76604;-85
2022/07/18 00:34:16;;;;;;;5.30;1.70;;;;;;;14.50;64.95;101837.84;107773;1278;71432;-85
2022/07/18 00:36:42;;;;;;;9.40;1.70;;;;;;;14.48;65.33;101842.81;107768;1278;73225;-85
2022/07/18 00:39:10;;;;;;;5.00;1.60;;;;;;;14.46;65.34;101846.77;107753;1277;62227;-85
2022/07/18 00:41:37;;;;;;;6.70;1.50;;;;;;;14.43;65.70;101850.18;107760;1277;61540;-85
2022/07/18 00:44:03;;;;;;;5.80;1.60;;;;;;;14.40;65.63;101843.39;108000;1277;75571;-85
2022/07/18 00:46:30;;;;;;;3.60;1.40;;;;;;;14.38;65.65;101846.87;107937;1277;71732;-85
2022/07/18 00:48:57;;;;;;;7.80;1.80;;;;;;;14.35;66.00;101838.55;107805;1278;74477;-85
2022/07/18 00:51:24;;;;;;;3.10;1.30;;;;;;;14.34;66.13;101835.19;107951;1277;62110;-85
2022/07/18 00:53:51;;;;;;;4.80;2.10;;;;;;;14.33;66.23;101831.36;107779;1277;60384;-85
2022/07/18 00:56:19;;;;;;;4.60;1.70;;;;;;;14.31;66.27;101834.23;107909;1277;75728;-86
2022/07/18 00:58:47;;;;;;;7.80;1.90;;;;;;;14.29;66.48;101830.90;107884;1277;71670;-86
2022/07/18 01:03:59;;;;;;;4.90;2.00;;;;;;;14.23;66.94;101829.29;107940;1277;62465;-85
2022/07/18 01:06:25;;;;;;;7.50;2.10;;;;;;;14.20;66.89;101827.24;107761;1277;61214;-85
2022/07/18 01:08:53;;;;;;;5.20;1.70;;;;;;;14.18;67.21;101829.10;108054;1276;76596;-85
2022/07/18 01:11:21;;;;;;;7.80;1.60;;;;;;;14.16;67.17;101825.20;107451;1277;71707;-85
2022/07/18 01:13:49;;;;;;;5.80;1.90;;;;;;;14.15;67.31;101827.86;107812;1277;74447;-85
2022/07/18 01:16:17;;;;;;;6.10;1.70;;;;;;;14.14;67.46;101830.94;107937;1277;63811;-85
2022/07/18 01:18:49;;;;;;;3.80;1.50;;;;;;;14.13;67.48;101829.48;107045;1277;669156;-85
2022/07/18 01:25:17;;;;;;;4.90;1.60;;;;;;;14.08;67.80;101822.06;108032;1276;69839;-85
2022/07/18 01:27:44;;;;;;;6.00;1.60;;;;;;;14.05;67.76;101825.33;107780;1277;74385;-86
2022/07/18 01:30:12;;;;;;;4.20;1.50;;;;;;;14.04;67.73;101827.73;107969;1277;62038;-85
2022/07/18 01:32:39;;;;;;;6.30;1.90;;;;;;;14.03;67.88;101819.35;107770;1277;60232;-84
2022/07/18 01:35:06;;;;;;;4.70;1.50;;;;;;;14.02;67.93;101816.96;108001;1276;74384;-85
2022/07/18 01:37:45;;;;;;;5.50;1.80;;;;;;;14.01;67.75;101811.73;107665;1277;71397;-86
2022/07/18 01:40:13;;;;;;;5.90;1.50;;;;;;;13.99;68.02;101808.56;107978;1277;72996;-86
2022/07/18 01:42:40;;;;;;;5.10;1.70;;;;;;;13.98;68.20;101808.00;107809;1277;62792;-86
2022/07/18 01:45:07;;;;;;;5.10;1.40;;;;;;;13.95;67.96;101812.58;107976;1276;60724;-86
2022/07/18 01:47:34;;;;;;;4.20;1.50;;;;;;;13.92;68.04;101812.02;107985;1276;77158;-86
2022/07/18 01:50:01;;;;;;;6.30;1.70;;;;;;;13.90;68.31;101813.52;107693;1276;71580;-86
2022/07/18 01:52:28;;;;;;;5.70;1.80;;;;;;;13.88;68.44;101811.98;107816;1277;75277;-86
2022/07/18 01:54:55;;;;;;;3.60;1.60;;;;;;;13.85;68.31;101807.45;107795;1277;62137;-86
2022/07/18 01:57:23;;;;;;;4.90;2.00;;;;;;;13.82;68.57;101807.77;107791;1277;60133;-86
2022/07/18 01:59:50;;;;;;;5.60;2.00;;;;;;;13.78;68.55;101806.87;107647;1278;76441;-86
2022/07/18 02:02:17;;;;;;;7.70;2.20;;;;;;;13.75;68.63;101808.64;107673;1277;73400;-86
2022/07/18 02:05:00;;;;;;;5.60;1.70;;;;;;;13.72;68.56;101806.11;107801;1276;74226;-87
2022/07/18 02:07:34;;;;;;;4.80;1.70;;;;;;;13.69;68.69;101809.40;107458;1279;64064;-87
2022/07/18 02:10:16;;;;;;;6.00;2.50;;;;;;;13.66;68.46;101807.77;107792;1277;61662;-87
2022/07/18 02:12:44;;;;;;;4.70;2.30;;;;;;;13.63;68.42;101802.59;108301;1277;76948;-86
2022/07/18 02:15:12;;;;;;;3.90;1.70;;;;;;;13.61;68.54;101803.67;108271;1277;72962;-87
2022/07/18 02:17:39;;;;;;;5.00;1.80;;;;;;;13.61;68.69;101801.91;108042;1276;72108;-86
2022/07/18 02:20:08;;;;;;;7.50;2.10;;;;;;;13.59;68.49;101800.05;107824;1277;62254;-86
2022/07/18 02:22:35;;;;;;;5.40;2.30;;;;;;;13.57;68.50;101798.08;107871;1277;61701;-87
2022/07/18 02:25:04;;;;;;;4.20;1.60;;;;;;;13.55;68.78;101795.49;108084;1276;76849;-86
2022/07/18 02:27:32;;;;;;;5.60;1.90;;;;;;;13.53;68.65;101791.66;107711;1277;70399;-87
2022/07/18 02:29:59;;;;;;;4.50;1.60;;;;;;;13.50;68.61;101787.50;107845;1277;71454;-87
2022/07/18 02:32:27;;;;;;;5.20;1.90;;;;;;;13.47;68.77;101783.70;108039;1276;63124;-87
2022/07/18 02:34:53;;;;;;;4.00;1.60;;;;;;;13.45;68.79;101784.79;107974;1277;60444;-87
2022/07/18 02:37:21;;;;;;;4.00;1.50;;;;;;;13.43;68.92;101784.13;108049;1276;74799;-87
2022/07/18 02:39:48;;;;;;;4.80;1.70;;;;;;;13.42;69.09;101782.34;108009;1277;71250;-87
2022/07/18 02:42:15;;;;;;;4.80;1.60;;;;;;;13.40;69.23;101780.33;107904;1276;73227;-87
2022/07/18 02:44:43;;;;;;;3.30;1.50;;;;;;;13.39;69.19;101776.07;107982;1276;62359;-87
2022/07/18 02:47:09;;;;;;;5.00;1.70;;;;;;;13.36;69.47;101773.56;107628;1277;60995;-87
2022/07/18 02:49:38;;;;;;;5.20;1.50;;;;;;;13.33;69.64;101774.58;107694;1277;77596;-87
2022/07/18 02:52:08;;;;;;;4.90;1.70;;;;;;;13.31;69.91;101776.42;107895;1277;71681;-87
2022/07/18 02:54:37;;;;;;;5.80;1.60;;;;;;;13.29;69.76;101778.25;107885;1277;74432;-87
2022/07/18 02:57:05;;;;;;;5.50;1.80;;;;;;;13.26;70.02;101774.11;107787;1276;62157;-87
2022/07/18 02:59:32;;;;;;;6.00;1.80;;;;;;;13.25;70.03;101771.01;108003;1276;62366;-87
2022/07/18 03:02:00;;;;;;;4.40;2.00;;;;;;;13.24;70.23;101773.20;107731;1277;75965;-87
2022/07/18 03:04:26;;;;;;;6.40;1.60;;;;;;;13.23;70.29;101774.02;107603;1279;71642;-87
2022/07/18 03:06:54;;;;;;;4.50;2.00;;;;;;;13.22;70.33;101777.84;107783;1277;73603;-87
2022/07/18 03:09:21;;;;;;;7.30;2.10;;;;;;;13.21;70.35;101774.10;108002;1276;62330;-87
2022/07/18 03:11:48;;;;;;;6.60;2.10;;;;;;;13.19;70.52;101775.13;107572;1276;59954;-87
2022/07/18 03:14:16;;;;;;;4.90;1.80;;;;;;;13.18;70.39;101770.17;107993;1276;77446;-87
2022/07/18 03:16:42;;;;;;;6.20;2.10;;;;;;;13.16;70.55;101770.73;108076;1276;72693;-87
2022/07/18 03:19:10;;;;;;;4.00;1.90;;;;;;;13.14;70.56;101768.83;107647;1277;73456;-86
2022/07/18 03:21:36;;;;;;;7.40;2.00;;;;;;;13.13;70.61;101776.42;107901;1276;62440;-87
2022/07/18 03:24:04;;;;;;;4.50;1.80;;;;;;;13.10;70.89;101778.99;107708;1277;60737;-87
2022/07/18 03:26:31;;;;;;;5.40;1.80;;;;;;;13.10;70.88;101778.54;107832;1277;75757;-87
2022/07/18 03:28:58;;;;;;;4.60;2.00;;;;;;;13.10;70.94;101773.87;107985;1277;72236;-87
2022/07/18 03:31:26;;;;;;;5.70;1.90;;;;;;;13.10;70.96;101773.27;108023;1276;74266;-87
2022/07/18 03:33:53;;;;;;;8.50;2.10;;;;;;;13.11;71.04;101769.52;107770;1277;61515;-87
2022/07/18 03:36:21;;;;;;;5.90;1.80;;;;;;;13.12;71.07;101766.70;107895;1277;60322;-87
2022/07/18 03:38:48;;;;;;;6.20;1.80;;;;;;;13.13;71.05;101765.41;107767;1277;77775;-87
2022/07/18 03:41:15;;;;;;;4.70;1.90;;;;;;;13.14;71.07;101773.36;107949;1277;72570;-88
2022/07/18 03:43:42;;;;;;;5.50;2.10;;;;;;;13.16;71.16;101773.93;107807;1276;72086;-88
2022/07/18 03:46:09;;;;;;;3.40;1.70;;;;;;;13.18;71.04;101779.36;107989;1275;62226;-87
2022/07/18 03:48:37;;;;;;;5.40;1.80;;;;;;;13.21;71.36;101777.63;108033;1276;61370;-87
2022/07/18 03:51:06;;;;;;;4.90;1.80;;;;;;;13.22;71.00;101773.21;107623;1277;77160;-87
2022/07/18 03:53:34;;;;;;;5.40;1.90;;;;;;;13.22;71.17;101769.38;107988;1276;70455;-87
2022/07/18 03:56:01;;;;;;;3.50;2.00;;;;;;;13.23;71.28;101770.80;108000;1276;73138;-87
2022/07/18 03:58:28;;;;;;;6.40;2.30;;;;;;;13.27;71.35;101764.72;107702;1279;63343;-87
2022/07/18 04:00:55;;;;;;;4.70;2.20;;;;;;;13.31;71.25;101760.98;107893;1277;61639;-88
2022/07/18 04:03:22;;;;;;;6.10;2.10;;;;;;;13.35;71.29;101761.44;108149;1276;75538;-87
2022/07/18 04:05:50;;;;;;;5.70;2.30;;;;;;;13.36;70.96;101762.04;108101;1276;70281;-87
2022/07/18 04:08:17;;;;;;;4.20;1.90;;;;;;;13.36;71.00;101763.23;108226;1277;73954;-87
2022/07/18 04:10:44;;;;;;;3.40;1.80;;;;;;;13.37;70.93;101763.24;108204;1277;60857;-87
2022/07/18 04:13:11;;;;;;;4.50;1.70;;;;;;;13.37;70.77;101762.21;108337;1277;60669;-87
2022/07/18 04:15:39;;;;;;;5.10;1.90;;;;;;;13.39;71.10;101767.85;108085;1277;75855;-87
2022/07/18 04:18:07;;;;;;;4.60;2.20;;;;;;;13.44;70.89;101769.84;108160;1276;70956;-88
2022/07/18 04:20:35;;;;;;;4.70;2.00;;;;;;;13.47;70.90;101761.30;108091;1276;73002;-87
2022/07/18 04:23:05;;;;;;;6.10;1.90;;;;;;;13.53;70.92;101759.67;107969;1276;62117;-88
2022/07/18 04:25:39;;;;;;;4.00;1.90;;;;;;;13.60;70.90;101760.45;108049;1277;63763;-87
2022/07/18 04:28:08;;;;;;;6.50;2.20;;;;;;;13.67;70.82;101758.45;108220;1276;75958;-85
2022/07/18 04:30:35;;;;;;;6.30;2.00;;;;;;;13.74;70.68;101750.38;107891;1276;71964;-85
2022/07/18 04:33:04;;;;;;;7.20;2.00;;;;;;;13.82;70.57;101747.86;107897;1276;72952;-85
2022/07/18 04:35:32;;;;;;;3.40;1.80;;;;;;;13.91;70.28;101742.17;107808;1276;61977;-86
2022/07/18 04:37:58;;;;;;;4.70;2.00;;;;;;;13.98;70.28;101738.64;107925;1276;61087;-86
2022/07/18 04:40:25;;;;;;;6.20;2.50;;;;;;;14.07;70.20;101738.31;107853;1279;75795;-86
2022/07/18 04:42:52;;;;;;;5.10;1.90;;;;;;;14.18;70.04;101746.90;107799;1276;71460;-86
2022/07/18 04:45:21;;;;;;;4.70;1.90;;;;;;;14.28;69.75;101747.66;107779;1276;73333;-85
2022/07/18 04:47:49;;;;;;;4.40;1.70;;;;;;;14.37;69.22;101744.02;107991;1277;61954;-85
2022/07/18 04:50:17;;;;;;;4.90;1.90;;;;;;;14.44;68.94;101744.48;108111;1276;60827;-85
2022/07/18 04:52:46;;;;;;;4.00;2.00;;;;;;;14.50;68.49;101746.63;108130;1276;77159;-85
2022/07/18 04:55:14;;;;;;;3.80;1.70;;;;;;;14.57;68.43;101750.64;107941;1276;70719;-86
2022/07/18 04:57:41;;;;;;;4.70;1.90;;;;;;;14.70;68.24;101749.24;107945;1277;73900;-86
2022/07/18 05:00:12;;;;;;;7.20;2.30;;;;;;;14.82;67.91;101743.16;108007;1276;62777;-86
2022/07/18 05:02:44;;;;;;;5.20;1.50;;;;;;;14.93;67.51;101737.88;107853;1276;60646;-85
2022/07/18 05:05:12;;;;;;;5.40;1.70;;;;;;;15.00;66.92;101740.80;107936;1276;75576;-85
2022/07/18 05:07:41;;;;;;;6.40;1.70;;;;;;;15.07;66.76;101741.31;107725;1276;71509;-86
2022/07/18 05:10:10;;;;;;;9.90;5.10;;;;;;;15.17;66.77;101746.28;107856;1276;72435;-85
2022/07/18 05:12:38;;;;;;;5.60;1.70;;;;;;;15.30;66.66;101743.33;107583;1277;62734;-85
2022/07/18 05:15:07;;;;;;;4.70;1.70;;;;;;;15.45;66.21;101743.36;107830;1276;60624;-85
2022/07/18 05:17:35;;;;;;;3.90;1.50;;;;;;;15.60;65.76;101743.39;107982;1276;75894;-85
2022/07/18 05:20:03;;;;;;;6.70;1.60;;;;;;;15.76;65.44;101746.29;107797;1275;72366;-85
2022/07/18 05:22:32;;;;;;;3.90;1.50;;;;;;;15.93;64.80;101744.94;107670;1276;75882;-85
2022/07/18 05:25:00;;;;;;;2.90;1.60;;;;;;;16.10;64.08;101745.20;107912;1276;63572;-85
2022/07/18 05:27:27;;;;;;;3.50;1.70;;;;;;;16.26;63.55;101736.52;107821;1277;60903;-85
2022/07/18 05:29:53;;;;;;;3.40;1.10;;;;;;;16.40;63.02;101734.46;107993;1276;75223;-85
2022/07/18 05:32:20;;;;;;;4.00;1.40;;;;;;;16.56;62.95;101726.08;108131;1276;71635;-85
2022/07/18 05:34:48;;;;;;;3.50;1.30;;;;;;;16.71;62.32;101726.69;108190;1276;74356;-84
2022/07/18 05:37:14;;;;;;;2.90;1.40;;;;;;;16.83;61.58;101725.46;108196;1276;62942;-85
2022/07/18 05:39:41;;;;;;;3.40;1.50;;;;;;;16.93;61.03;101724.87;107864;1276;60314;-85
2022/07/18 05:42:08;;;;;;;5.10;1.90;;;;;;;17.05;60.86;101730.30;107866;1276;75881;-85
2022/07/18 05:44:35;;;;;;;4.10;1.40;;;;;;;17.20;60.65;101726.19;107742;1277;72052;-85
2022/07/18 05:47:03;;;;;;;4.40;1.50;;;;;;;17.35;60.04;101730.52;107911;1277;74368;-85
2022/07/18 05:49:29;;;;;;;3.60;1.40;;;;;;;17.50;59.43;101731.66;107858;1277;62039;-85
2022/07/18 05:51:56;;;;;;;3.80;1.20;;;;;;;17.69;59.24;101739.84;108014;1276;59868;-87
2022/07/18 05:54:23;;;;;;;3.50;1.30;;;;;;;17.88;58.47;101737.96;107873;1276;76349;-86
2022/07/18 05:56:53;;;;;;;4.50;1.50;;;;;;;18.07;58.14;101738.63;107923;1276;72557;-85
2022/07/18 05:59:21;;;;;;;4.00;1.40;;;;;;;18.25;57.74;101740.91;108019;1276;73023;-85
2022/07/18 06:01:48;;;;;;;3.90;1.20;;;;;;;18.40;57.22;101742.74;107837;1276;60400;-85
2022/07/18 06:04:15;;;;;;;3.70;1.30;;;;;;;18.48;56.36;101742.90;107975;1276;60614;-85
2022/07/18 06:06:43;;;;;;;4.60;1.20;;;;;;;18.53;56.24;101736.09;107836;1277;76384;-85
2022/07/18 06:09:10;;;;;;;3.90;1.30;;;;;;;18.61;55.91;101734.00;107838;1276;72813;-85
2022/07/18 06:11:37;;;;;;;3.30;1.20;;;;;;;18.68;54.87;101731.66;107775;1276;72972;-86
2022/07/18 06:14:04;;;;;;;3.60;1.30;;;;;;;18.73;55.07;101727.13;107951;1276;61523;-85
2022/07/18 06:16:31;;;;;;;6.90;1.80;;;;;;;18.80;55.17;101723.12;107884;1276;61960;-86
2022/07/18 06:18:58;;;;;;;4.50;1.40;;;;;;;18.88;55.21;101725.48;107737;1278;77208;-86
2022/07/18 06:21:26;;;;;;;6.10;1.40;;;;;;;19.03;54.91;101720.32;107875;1276;71520;-87
2022/07/18 06:23:53;;;;;;;10.60;2.10;;;;;;;19.28;54.66;101713.05;107931;1277;73980;-86
2022/07/18 06:26:20;;;;;;;7.90;2.00;;;;;;;19.55;54.48;101707.13;108067;1276;64053;-85
2022/07/18 06:28:47;;;;;;;5.50;1.70;;;;;;;19.82;53.49;101710.73;107582;1276;59913;-85
2022/07/18 06:31:17;;;;;;;4.10;1.10;;;;;;;20.11;52.40;101707.88;107896;1276;74760;-85
2022/07/18 06:33:44;;;;;;;3.90;1.20;;;;;;;20.32;50.52;101705.61;107974;1276;72437;-85
2022/07/18 06:36:11;;;;;;;4.80;1.50;;;;;;;20.45;49.80;101709.27;107779;1277;72992;-86
2022/07/18 06:38:39;;;;;;;7.70;1.50;;;;;;;20.58;49.61;101702.91;107989;1278;61283;-85
2022/07/18 06:41:07;;;;;;;5.90;1.50;;;;;;;20.74;50.22;101703.66;107889;1278;60943;-86
2022/07/18 06:43:37;;;;;;;5.00;1.60;;;;;;;20.94;49.52;101703.56;108008;1276;76999;-83
2022/07/18 06:46:08;;;;;;;7.10;1.40;;;;;;;21.12;49.42;101704.99;108058;1276;71151;-85
2022/07/18 06:48:35;;;;;;;3.20;1.40;;;;;;;21.25;48.53;101700.19;107905;1277;73962;-85
2022/07/18 06:51:03;;;;;;;4.40;1.40;;;;;;;21.39;47.18;101696.58;108051;1276;60894;-85
2022/07/18 06:53:32;;;;;;;5.20;1.40;;;;;;;21.51;46.99;101699.46;107848;1276;60362;-85
2022/07/18 06:56:02;;;;;;;4.10;1.40;;;;;;;21.65;46.55;101697.82;107879;1276;76905;-85
2022/07/18 06:58:33;;;;;;;16.90;13.90;;;;;;;21.79;45.35;101702.66;107948;1278;71304;-85
2022/07/18 07:01:02;;;;;;;5.00;1.30;;;;;;;21.89;45.27;101699.43;108078;1276;73258;-85
2022/07/18 07:03:31;;;;;;;4.70;1.20;;;;;;;21.99;45.36;101691.84;108172;1276;61743;-85
2022/07/18 07:05:58;;;;;;;7.40;1.30;;;;;;;22.09;44.67;101693.86;107877;1279;60642;-84
2022/07/18 07:08:25;;;;;;;3.80;1.00;;;;;;;22.14;42.47;101697.55;108183;1275;75850;-84
2022/07/18 07:10:52;;;;;;;7.60;2.10;;;;;;;22.20;42.89;101698.77;108191;1276;71202;-85
2022/07/18 07:13:19;;;;;;;5.40;1.50;;;;;;;22.31;43.04;101699.51;108168;1276;73068;-82
2022/07/18 07:15:46;;;;;;;5.20;1.20;;;;;;;22.37;43.21;101696.71;108149;1276;60626;-86
2022/07/18 07:18:13;;;;;;;3.30;1.00;;;;;;;22.47;42.14;101691.19;108004;1277;60009;-84
2022/07/18 07:20:39;;;;;;;3.60;1.00;;;;;;;22.53;41.78;101688.80;107987;1276;75895;-85
2022/07/18 07:23:09;;;;;;;5.80;2.60;;;;;;;22.60;41.06;101685.63;108115;1277;73074;-86
2022/07/18 07:25:37;;;;;;;5.10;1.00;;;;;;;22.72;41.13;101688.19;107885;1276;73488;-86
2022/07/18 07:28:04;;;;;;;3.60;1.40;;;;;;;22.80;40.07;101686.44;108198;1276;60361;-86
2022/07/18 07:30:32;;;;;;;2.70;1.00;;;;;;;22.96;40.27;101678.78;107923;1277;60694;-84
2022/07/18 07:33:00;;;;;;;3.00;1.10;;;;;;;23.12;39.15;101677.83;108083;1276;76867;-83
2022/07/18 07:35:27;;;;;;;4.10;1.70;;;;;;;23.23;38.19;101678.85;107956;1277;72701;-86
2022/07/18 07:37:59;;;;;;;3.20;1.10;;;;;;;23.29;37.71;101675.14;108107;1276;74671;-85
2022/07/18 07:40:27;;;;;;;4.30;1.00;;;;;;;23.37;37.56;101678.20;108027;1277;61802;-85
2022/07/18 07:43:09;;;;;;;3.60;1.00;;;;;;;23.47;37.57;101676.20;107784;1279;60844;-85
2022/07/18 07:45:36;;;;;;;4.40;1.40;;;;;;;23.58;37.35;101676.54;107979;1277;76820;-86
2022/07/18 07:48:04;;;;;;;4.10;1.00;;;;;;;23.69;38.36;101678.99;108088;1276;71148;-87
2022/07/18 07:50:31;;;;;;;3.60;1.20;;;;;;;23.78;38.14;101678.61;107920;1276;72465;-84
2022/07/18 07:52:58;;;;;;;4.40;1.00;;;;;;;23.85;37.54;101678.86;107873;1276;61467;-87
2022/07/18 07:55:26;;;;;;;3.20;0.90;;;;;;;23.87;36.55;101680.16;107924;1276;60615;-86
2022/07/18 07:57:53;;;;;;;2.30;0.90;;;;;;;23.88;36.00;101677.58;107773;1277;76967;-87
2022/07/18 08:00:20;;;;;;;5.50;1.00;;;;;;;23.94;35.93;101675.05;107978;1279;72919;-87
2022/07/18 08:02:57;;;;;;;3.20;1.20;;;;;;;24.02;35.86;101670.48;107948;1276;73407;-87
2022/07/18 08:05:27;;;;;;;4.70;1.10;;;;;;;24.10;36.03;101671.46;107980;1276;61514;-87
2022/07/18 08:07:54;;;;;;;5.10;1.00;;;;;;;24.20;36.01;101668.61;107976;1276;61163;-87
2022/07/18 08:10:21;;;;;;;4.70;1.30;;;;;;;24.33;36.34;101666.39;107949;1277;75696;-84
2022/07/18 08:12:48;;;;;;;3.40;1.10;;;;;;;24.46;36.37;101661.98;108064;1276;70207;-87
2022/07/18 08:15:15;;;;;;;3.30;1.10;;;;;;;24.63;35.88;101659.90;107849;1279;72931;-86
2022/07/18 08:17:42;;;;;;;2.70;0.80;;;;;;;24.78;35.19;101661.35;108028;1276;60654;-87
2022/07/18 08:20:13;;;;;;;5.80;2.70;;;;;;;24.91;34.53;101664.53;108322;1276;61640;-86
2022/07/18 08:22:59;;;;;;;2.70;1.20;;;;;;;25.00;34.11;101663.75;108141;1279;76811;-85
2022/07/18 08:25:28;;;;;;;5.40;2.00;;;;;;;25.08;34.26;101663.21;108323;1276;74978;-87
2022/07/18 08:27:57;;;;;;;8.40;4.40;;;;;;;25.14;33.90;101662.17;108011;1276;73051;-86
2022/07/18 08:30:24;;;;;;;4.40;0.90;;;;;;;25.19;33.63;101661.39;107827;1278;61157;-85
2022/07/18 08:32:51;;;;;;;3.40;1.00;;;;;;;25.24;33.40;101662.23;107978;1276;60826;-85
2022/07/18 08:35:20;;;;;;;4.30;0.90;;;;;;;25.32;33.47;101657.79;108156;1276;76796;-85
2022/07/18 08:37:46;;;;;;;3.40;0.90;;;;;;;25.38;32.76;101656.51;107979;1277;71462;-87
2022/07/18 08:40:14;;;;;;;3.20;1.30;;;;;;;25.44;32.99;101653.72;107888;1277;72743;-87
2022/07/18 08:42:41;;;;;;;3.40;1.40;;;;;;;25.54;32.89;101651.55;107985;1278;60606;-84
2022/07/18 08:45:28;;;;;;;4.00;1.00;;;;;;;25.65;32.62;101646.37;108005;1276;62241;-85
2022/07/18 08:47:55;;;;;;;2.40;1.10;;;;;;;25.78;32.45;101645.34;108140;1276;75821;-85
2022/07/18 08:50:22;;;;;;;7.20;2.10;;;;;;;25.86;32.39;101643.04;108085;1276;72386;-87
2022/07/18 08:52:49;;;;;;;3.20;1.00;;;;;;;25.87;32.11;101645.60;107814;1278;73257;-85
2022/07/18 08:55:21;;;;;;;2.80;1.00;;;;;;;25.90;31.75;101644.73;107709;1279;60049;-86
2022/07/18 08:57:53;;;;;;;1.70;0.80;;;;;;;25.97;31.68;101646.61;107991;1276;62443;-85
2022/07/18 09:00:21;;;;;;;2.60;0.90;;;;;;;26.06;31.17;101643.66;107979;1276;76369;-85
2022/07/18 09:02:58;;;;;;;3.80;1.20;;;;;;;26.15;31.19;101643.81;108115;1276;71375;-86
2022/07/18 09:05:25;;;;;;;2.90;1.00;;;;;;;26.24;31.10;101651.63;107993;1276;72274;-86
2022/07/18 09:08:22;;;;;;;3.00;0.80;;;;;;;26.34;30.22;101652.80;108205;1276;61010;-86
2022/07/18 09:10:54;;;;;;;2.50;0.90;;;;;;;26.43;30.34;101647.08;108210;1276;60265;-85
2022/07/18 09:13:24;;;;;;;3.00;0.90;;;;;;;26.54;29.94;101651.81;108362;1278;77206;-86
2022/07/18 09:16:09;;;;;;;4.30;1.40;;;;;;;26.68;30.36;101653.64;108305;1276;72219;-86
2022/07/18 09:18:41;;;;;;;2.50;0.90;;;;;;;26.80;30.19;101649.76;108165;1278;73202;-85
2022/07/18 09:21:17;;;;;;;3.20;1.10;;;;;;;26.91;29.65;101650.66;108467;1276;60587;-85
2022/07/18 09:23:50;;;;;;;4.20;1.40;;;;;;;27.01;28.40;101642.17;108419;1276;60693;-85
2022/07/18 09:26:52;;;;;;;4.40;3.20;;;;;;;27.09;28.19;101643.04;108080;1278;75003;-86
2022/07/18 09:29:19;;;;;;;4.30;2.20;;;;;;;27.18;28.46;101645.43;107550;1282;70399;-86
2022/07/18 09:31:57;;;;;;;3.80;1.70;;;;;;;27.23;27.93;101641.67;108034;1276;74183;-85
2022/07/18 09:34:35;;;;;;;4.30;2.00;;;;;;;27.29;26.88;101638.71;108118;1276;61624;-86
2022/07/18 09:37:02;;;;;;;5.20;2.00;;;;;;;27.34;26.42;101625.27;108099;1276;60323;-86
2022/07/18 09:39:29;;;;;;;3.20;1.70;;;;;;;27.42;26.88;101624.72;107844;1276;76301;-87
2022/07/18 09:42:18;;;;;;;3.50;1.50;;;;;;;27.49;26.29;101619.73;107967;1278;72829;-87
2022/07/18 09:45:01;;;;;;;3.70;1.80;;;;;;;27.60;27.10;101616.61;108099;1276;76934;-87
2022/07/18 09:47:28;;;;;;;2.90;1.80;;;;;;;27.74;26.36;101611.05;108117;1276;60965;-86
2022/07/18 09:49:54;;;;;;;4.30;2.20;;;;;;;27.83;25.65;101612.28;107959;1278;60804;-87
2022/07/18 09:52:22;;;;;;;5.50;2.70;;;;;;;27.94;25.96;101609.36;107907;1279;75191;-84
2022/07/18 09:54:49;;;;;;;3.90;2.30;;;;;;;28.19;26.32;101612.26;108012;1277;71340;-86
2022/07/18 09:57:26;;;;;;;5.10;2.60;;;;;;;28.40;26.31;101602.17;108018;1278;73950;-86
2022/07/18 09:59:53;;;;;;;5.10;2.60;;;;;;;28.58;24.10;101600.07;107613;1279;64229;-86
2022/07/18 10:02:21;;;;;;;3.90;2.10;;;;;;;28.68;24.05;101597.73;108038;1276;60362;-86
2022/07/18 10:04:49;;;;;;;4.20;2.70;;;;;;;28.77;24.71;101593.00;107834;1278;77074;-85
2022/07/18 10:07:16;;;;;;;4.30;2.90;;;;;;;28.88;23.92;101592.33;108015;1276;73240;-86
2022/07/18 10:09:44;;;;;;;3.90;2.00;;;;;;;29.00;25.06;101590.05;108133;1276;72897;-86
2022/07/18 10:12:14;;;;;;;2.70;1.30;;;;;;;29.19;25.98;101589.42;107983;1276;60589;-86
2022/07/18 10:14:41;;;;;;;6.30;2.00;;;;;;;29.42;25.78;101586.87;107987;1279;60605;-86
2022/07/18 10:17:10;;;;;;;4.60;2.50;;;;;;;29.56;24.29;101586.41;108085;1276;77767;-86
2022/07/18 10:19:37;;;;;;;3.10;1.90;;;;;;;29.64;23.74;101591.36;107780;1276;71405;-88
2022/07/18 10:22:05;;;;;;;4.20;1.90;;;;;;;29.62;23.49;101587.87;107823;1276;73025;-85
2022/07/18 10:24:33;;;;;;;3.20;2.00;;;;;;;29.54;23.95;101587.31;108048;1276;61814;-87
2022/07/18 10:27:12;;;;;;;3.50;2.20;;;;;;;29.45;23.22;101581.11;108056;1277;60716;-86
2022/07/18 10:29:39;;;;;;;3.40;2.60;;;;;;;29.49;22.76;101584.66;107874;1279;75542;-85
2022/07/18 10:32:08;;;;;;;5.40;2.30;;;;;;;29.59;22.90;101584.55;107925;1279;71468;-85
2022/07/18 10:34:36;;;;;;;5.40;2.70;;;;;;;29.73;22.80;101582.74;108122;1276;76155;-84
2022/07/18 10:37:04;;;;;;;3.70;1.80;;;;;;;29.87;23.11;101578.50;107985;1278;63564;-85
2022/07/18 10:39:38;;;;;;;3.30;2.10;;;;;;;29.99;22.73;101573.06;108146;1276;62326;-84
2022/07/18 10:42:08;;;;;;;5.10;2.20;;;;;;;30.12;22.53;101577.06;107971;1278;75759;-85
2022/07/18 10:44:36;;;;;;;3.60;1.90;;;;;;;30.16;22.43;101571.73;108161;1276;71382;-86
2022/07/18 10:47:03;;;;;;;4.80;1.80;;;;;;;30.11;22.78;101570.02;107801;1278;72338;-85
2022/07/18 10:49:52;;;;;;;3.90;2.00;;;;;;;30.16;23.41;101568.23;107943;1276;60156;-84
2022/07/18 10:52:27;;;;;;;3.80;1.90;;;;;;;30.35;23.69;101568.80;108051;1277;60956;-86
2022/07/18 10:55:03;;;;;;;3.70;1.60;;;;;;;30.58;23.76;101571.66;108006;1278;75981;-84
2022/07/18 10:57:30;;;;;;;3.20;1.40;;;;;;;30.70;23.89;101574.05;108123;1276;72680;-84
2022/07/18 11:00:27;;;;;;;5.40;1.90;;;;;;;30.78;23.65;101570.64;107975;1278;73116;-84
2022/07/18 11:02:59;;;;;;;3.00;1.60;;;;;;;30.92;23.51;101573.05;108109;1276;60382;-85
2022/07/18 11:05:26;;;;;;;3.50;1.30;;;;;;;31.10;23.43;101563.08;108085;1276;61138;-85
2022/07/18 11:08:01;;;;;;;2.60;1.20;;;;;;;31.26;23.45;101552.96;108158;1276;77033;-85
2022/07/18 11:10:47;;;;;;;3.50;1.50;;;;;;;31.41;24.19;101553.87;108046;1276;71411;-86
2022/07/18 11:13:28;;;;;;;3.70;1.30;;;;;;;31.53;22.79;101553.66;108014;1276;75931;-84
2022/07/18 11:16:09;;;;;;;3.60;1.70;;;;;;;31.54;22.72;101548.59;108018;1279;60380;-85
2022/07/18 11:18:39;;;;;;;2.90;1.20;;;;;;;31.72;22.80;101538.34;108154;1276;60974;-86
2022/07/18 11:21:22;;;;;;;2.90;1.50;;;;;;;31.90;22.30;101534.73;108100;1276;75389;-86
2022/07/18 11:24:10;;;;;;;2.80;1.40;;;;;;;32.07;22.75;101524.70;107966;1277;71911;-86
2022/07/18 11:26:42;;;;;;;2.70;1.10;;;;;;;32.25;22.72;101524.73;108011;1278;74533;-84
2022/07/18 11:29:12;;;;;;;2.90;1.10;;;;;;;32.36;22.62;101524.31;107847;1278;60700;-84
2022/07/18 11:31:56;;;;;;;3.20;1.60;;;;;;;32.41;22.20;101528.84;108084;1276;59788;-85
2022/07/18 11:34:24;;;;;;;3.00;1.40;;;;;;;32.35;21.87;101531.08;107797;1277;74916;-86